sensor_id;sensor_type;location;lat;lon;timestamp;P1;durP1;ratioP1;P2;durP2;ratioP2
64242;SDS011;50573;51.512;5.386;2023-04-07T00:09:25;63.40;;;27.83;;
64242;SDS011;50573;51.512;5.386;2023-04-07T00:19:29;51.90;;;26.23;;
64242;SDS011;50573;51.512;5.386;2023-04-07T00:29:33;48.85;;;27.38;;
64242;SDS011;50573;51.512;5.386;2023-04-07T00:39:38;56.28;;;28.48;;
64242;SDS011;50573;51.512;5.386;2023-04-07T00:49:41;58.73;;;30.10;;
64242;SDS011;50573;51.512;5.386;2023-04-07T00:59:45;63.75;;;30.45;;
64242;SDS011;50573;51.512;5.386;2023-04-07T01:09:51;41.57;;;21.97;;
64242;SDS011;50573;51.512;5.386;2023-04-07T01:20:04;63.40;;;32.50;;
64242;SDS011;50573;51.512;5.386;2023-04-07T01:30:12;62.83;;;31.67;;
64242;SDS011;50573;51.512;5.386;2023-04-07T01:40:17;50.28;;;26.50;;
64242;SDS011;50573;51.512;5.386;2023-04-07T01:50:24;37.08;;;20.63;;
64242;SDS011;50573;51.512;5.386;2023-04-07T02:00:28;33.92;;;16.67;;
64242;SDS011;50573;51.512;5.386;2023-04-07T02:10:36;22.13;;;14.30;;
64242;SDS011;50573;51.512;5.386;2023-04-07T02:20:41;23.80;;;13.70;;
64242;SDS011;50573;51.512;5.386;2023-04-07T02:30:48;25.80;;;13.57;;
64242;SDS011;50573;51.512;5.386;2023-04-07T02:40:51;18.97;;;11.77;;
64242;SDS011;50573;51.512;5.386;2023-04-07T02:50:57;35.70;;;20.42;;
64242;SDS011;50573;51.512;5.386;2023-04-07T03:01:00;34.88;;;20.83;;
64242;SDS011;50573;51.512;5.386;2023-04-07T03:11:07;31.98;;;16.95;;
64242;SDS011;50573;51.512;5.386;2023-04-07T03:21:10;37.30;;;19.43;;
64242;SDS011;50573;51.512;5.386;2023-04-07T03:31:16;35.65;;;19.40;;
64242;SDS011;50573;51.512;5.386;2023-04-07T03:41:22;34.28;;;18.95;;
64242;SDS011;50573;51.512;5.386;2023-04-07T03:51:26;37.75;;;18.65;;
64242;SDS011;50573;51.512;5.386;2023-04-07T04:01:32;44.65;;;20.00;;
64242;SDS011;50573;51.512;5.386;2023-04-07T04:11:44;42.70;;;21.13;;
64242;SDS011;50573;51.512;5.386;2023-04-07T04:21:48;45.47;;;19.95;;
64242;SDS011;50573;51.512;5.386;2023-04-07T04:31:54;42.67;;;18.38;;
64242;SDS011;50573;51.512;5.386;2023-04-07T04:41:59;44.45;;;20.98;;
64242;SDS011;50573;51.512;5.386;2023-04-07T04:52:09;42.47;;;19.40;;
64242;SDS011;50573;51.512;5.386;2023-04-07T05:02:16;48.65;;;20.42;;
64242;SDS011;50573;51.512;5.386;2023-04-07T05:12:21;47.15;;;18.98;;
64242;SDS011;50573;51.512;5.386;2023-04-07T05:22:31;51.45;;;20.35;;
64242;SDS011;50573;51.512;5.386;2023-04-07T05:32:36;53.00;;;20.67;;
64242;SDS011;50573;51.512;5.386;2023-04-07T05:42:49;51.35;;;21.33;;
64242;SDS011;50573;51.512;5.386;2023-04-07T05:52:53;53.17;;;23.75;;
64242;SDS011;50573;51.512;5.386;2023-04-07T06:03:00;58.53;;;25.23;;
64242;SDS011;50573;51.512;5.386;2023-04-07T06:13:12;51.55;;;25.85;;
64242;SDS011;50573;51.512;5.386;2023-04-07T06:33:20;57.15;;;27.38;;
64242;SDS011;50573;51.512;5.386;2023-04-07T06:43:26;44.75;;;26.05;;
64242;SDS011;50573;51.512;5.386;2023-04-07T06:53:36;50.75;;;24.73;;
64242;SDS011;50573;51.512;5.386;2023-04-07T07:03:39;41.47;;;20.60;;
64242;SDS011;50573;51.512;5.386;2023-04-07T07:13:43;30.40;;;17.75;;
64242;SDS011;50573;51.512;5.386;2023-04-07T07:33:52;24.38;;;12.73;;
64242;SDS011;50573;51.512;5.386;2023-04-07T07:43:55;15.87;;;10.13;;
64242;SDS011;50573;51.512;5.386;2023-04-07T07:54:00;16.10;;;7.60;;
64242;SDS011;50573;51.512;5.386;2023-04-07T08:04:03;17.85;;;6.03;;
64242;SDS011;50573;51.512;5.386;2023-04-07T08:14:07;10.95;;;5.57;;
64242;SDS011;50573;51.512;5.386;2023-04-07T08:24:10;17.95;;;4.88;;
64242;SDS011;50573;51.512;5.386;2023-04-07T08:34:15;16.38;;;5.75;;
64242;SDS011;50573;51.512;5.386;2023-04-07T08:44:20;12.43;;;3.63;;
64242;SDS011;50573;51.512;5.386;2023-04-07T08:54:27;12.70;;;4.00;;
64242;SDS011;50573;51.512;5.386;2023-04-07T09:04:30;8.15;;;2.88;;
64242;SDS011;50573;51.512;5.386;2023-04-07T09:14:35;9.02;;;2.50;;
64242;SDS011;50573;51.512;5.386;2023-04-07T09:24:38;15.63;;;3.20;;
64242;SDS011;50573;51.512;5.386;2023-04-07T09:34:43;11.02;;;3.35;;
64242;SDS011;50573;51.512;5.386;2023-04-07T09:44:47;10.40;;;3.25;;
64242;SDS011;50573;51.512;5.386;2023-04-07T09:54:51;13.82;;;3.22;;
64242;SDS011;50573;51.512;5.386;2023-04-07T10:04:56;16.77;;;3.33;;
64242;SDS011;50573;51.512;5.386;2023-04-07T10:15:02;17.37;;;4.57;;
64242;SDS011;50573;51.512;5.386;2023-04-07T10:25:06;16.05;;;3.30;;
64242;SDS011;50573;51.512;5.386;2023-04-07T10:35:13;17.25;;;3.38;;
64242;SDS011;50573;51.512;5.386;2023-04-07T10:45:17;12.93;;;2.75;;
64242;SDS011;50573;51.512;5.386;2023-04-07T10:56:01;14.57;;;3.22;;
64242;SDS011;50573;51.512;5.386;2023-04-07T11:06:05;12.07;;;2.33;;
64242;SDS011;50573;51.512;5.386;2023-04-07T11:16:10;14.60;;;3.87;;
64242;SDS011;50573;51.512;5.386;2023-04-07T11:26:15;16.17;;;3.30;;
64242;SDS011;50573;51.512;5.386;2023-04-07T11:36:28;11.95;;;2.95;;
64242;SDS011;50573;51.512;5.386;2023-04-07T11:46:32;14.13;;;3.30;;
64242;SDS011;50573;51.512;5.386;2023-04-07T11:56:45;12.73;;;3.50;;
64242;SDS011;50573;51.512;5.386;2023-04-07T12:06:49;8.95;;;2.70;;
64242;SDS011;50573;51.512;5.386;2023-04-07T12:16:53;10.25;;;2.85;;
64242;SDS011;50573;51.512;5.386;2023-04-07T12:26:58;9.80;;;2.15;;
64242;SDS011;50573;51.512;5.386;2023-04-07T12:37:03;14.48;;;3.97;;
64242;SDS011;50573;51.512;5.386;2023-04-07T12:47:06;15.50;;;2.88;;
64242;SDS011;50573;51.512;5.386;2023-04-07T12:57:11;17.65;;;3.13;;
64242;SDS011;50573;51.512;5.386;2023-04-07T13:07:14;13.07;;;2.80;;
64242;SDS011;50573;51.512;5.386;2023-04-07T13:17:18;12.18;;;3.25;;
64242;SDS011;50573;51.512;5.386;2023-04-07T13:27:21;16.17;;;3.20;;
64242;SDS011;50573;51.512;5.386;2023-04-07T13:37:26;16.67;;;3.15;;
64242;SDS011;50573;51.512;5.386;2023-04-07T13:47:29;18.63;;;3.13;;
64242;SDS011;50573;51.512;5.386;2023-04-07T13:57:36;14.85;;;3.40;;
64242;SDS011;50573;51.512;5.386;2023-04-07T14:07:39;17.37;;;4.07;;
64242;SDS011;50573;51.512;5.386;2023-04-07T14:17:43;9.55;;;2.30;;
64242;SDS011;50573;51.512;5.386;2023-04-07T14:37:51;13.77;;;3.60;;
64242;SDS011;50573;51.512;5.386;2023-04-07T14:47:56;18.17;;;4.55;;
64242;SDS011;50573;51.512;5.386;2023-04-07T14:58:00;15.48;;;4.15;;
64242;SDS011;50573;51.512;5.386;2023-04-07T15:08:03;20.27;;;4.47;;
64242;SDS011;50573;51.512;5.386;2023-04-07T15:18:08;23.48;;;4.22;;
64242;SDS011;50573;51.512;5.386;2023-04-07T15:28:11;14.57;;;4.00;;
64242;SDS011;50573;51.512;5.386;2023-04-07T15:38:15;16.10;;;4.18;;
64242;SDS011;50573;51.512;5.386;2023-04-07T15:48:18;15.73;;;4.00;;
64242;SDS011;50573;51.512;5.386;2023-04-07T15:58:23;19.05;;;4.05;;
64242;SDS011;50573;51.512;5.386;2023-04-07T16:08:26;12.20;;;3.20;;
64242;SDS011;50573;51.512;5.386;2023-04-07T16:18:30;11.63;;;2.72;;
64242;SDS011;50573;51.512;5.386;2023-04-07T16:28:33;15.80;;;3.80;;
64242;SDS011;50573;51.512;5.386;2023-04-07T16:38:37;12.40;;;3.17;;
64242;SDS011;50573;51.512;5.386;2023-04-07T16:48:41;16.40;;;3.73;;
64242;SDS011;50573;51.512;5.386;2023-04-07T16:58:46;16.33;;;3.63;;
64242;SDS011;50573;51.512;5.386;2023-04-07T17:08:49;13.77;;;3.40;;
64242;SDS011;50573;51.512;5.386;2023-04-07T17:18:54;13.88;;;3.85;;
64242;SDS011;50573;51.512;5.386;2023-04-07T17:28:57;17.38;;;4.18;;
64242;SDS011;50573;51.512;5.386;2023-04-07T17:39:02;13.60;;;3.63;;
64242;SDS011;50573;51.512;5.386;2023-04-07T17:49:05;16.50;;;4.30;;
64242;SDS011;50573;51.512;5.386;2023-04-07T17:59:10;23.35;;;5.72;;
64242;SDS011;50573;51.512;5.386;2023-04-07T18:09:13;22.30;;;6.50;;
64242;SDS011;50573;51.512;5.386;2023-04-07T18:19:17;25.67;;;5.78;;
64242;SDS011;50573;51.512;5.386;2023-04-07T18:29:20;19.33;;;6.47;;
64242;SDS011;50573;51.512;5.386;2023-04-07T18:39:25;24.08;;;5.85;;
64242;SDS011;50573;51.512;5.386;2023-04-07T18:59:33;23.63;;;7.25;;
64242;SDS011;50573;51.512;5.386;2023-04-07T19:09:36;24.10;;;7.17;;
64242;SDS011;50573;51.512;5.386;2023-04-07T19:19:41;20.70;;;7.15;;
64242;SDS011;50573;51.512;5.386;2023-04-07T19:29:44;18.93;;;6.60;;
64242;SDS011;50573;51.512;5.386;2023-04-07T19:39:48;22.98;;;8.13;;
64242;SDS011;50573;51.512;5.386;2023-04-07T19:50:03;31.92;;;9.75;;
64242;SDS011;50573;51.512;5.386;2023-04-07T20:00:09;24.90;;;9.13;;
64242;SDS011;50573;51.512;5.386;2023-04-07T20:10:21;26.40;;;9.65;;
64242;SDS011;50573;51.512;5.386;2023-04-07T20:20:25;25.98;;;9.57;;
64242;SDS011;50573;51.512;5.386;2023-04-07T20:30:28;15.23;;;6.47;;
64242;SDS011;50573;51.512;5.386;2023-04-07T20:40:34;28.27;;;9.65;;
64242;SDS011;50573;51.512;5.386;2023-04-07T20:50:37;25.52;;;10.05;;
64242;SDS011;50573;51.512;5.386;2023-04-07T21:00:42;28.70;;;10.75;;
64242;SDS011;50573;51.512;5.386;2023-04-07T21:10:45;24.00;;;10.90;;
64242;SDS011;50573;51.512;5.386;2023-04-07T21:20:49;28.33;;;11.82;;
64242;SDS011;50573;51.512;5.386;2023-04-07T21:30:52;27.43;;;12.13;;
64242;SDS011;50573;51.512;5.386;2023-04-07T21:40:58;21.70;;;11.37;;
64242;SDS011;50573;51.512;5.386;2023-04-07T21:51:01;20.03;;;8.93;;
64242;SDS011;50573;51.512;5.386;2023-04-07T22:01:06;23.55;;;12.45;;
64242;SDS011;50573;51.512;5.386;2023-04-07T22:11:09;35.63;;;13.57;;
64242;SDS011;50573;51.512;5.386;2023-04-07T22:21:13;31.38;;;13.95;;
64242;SDS011;50573;51.512;5.386;2023-04-07T22:31:16;18.20;;;8.00;;
64242;SDS011;50573;51.512;5.386;2023-04-07T22:41:21;25.92;;;12.27;;
64242;SDS011;50573;51.512;5.386;2023-04-07T22:51:24;23.50;;;9.83;;
64242;SDS011;50573;51.512;5.386;2023-04-07T23:01:28;32.17;;;13.70;;
64242;SDS011;50573;51.512;5.386;2023-04-07T23:11:32;40.13;;;14.87;;
64242;SDS011;50573;51.512;5.386;2023-04-07T23:21:36;47.67;;;17.55;;
64242;SDS011;50573;51.512;5.386;2023-04-07T23:41:44;37.63;;;15.60;;
64242;SDS011;50573;51.512;5.386;2023-04-07T23:51:47;38.63;;;17.97;;
